Time;durP1;ratioP1;P1;durP2;ratioP2;P2;SDS_P1;SDS_P2;PMS_P1;PMS_P2;Temp;Humidity;BMP_temperature;BMP_pressure;BME280_temperature;BME280_humidity;BME280_pressure;Samples;Min_cycle;Max_cycle;Signal;HPM_P1;HPM_P2
2021/10/10 00:00:00;;;;;;;;;50.25;42.50;;;;;;;;5058263;28;52020;-59
2021/10/10 00:02:26;;;;;;;;;55.00;44.75;;;;;;;;5062552;28;51071;-58
2021/10/10 00:04:51;;;;;;;;;53.75;45.25;;;;;;;;5072626;28;51150;-58
2021/10/10 00:07:16;;;;;;;;;56.25;45.25;;;;;;;;5062772;28;51256;-58
2021/10/10 00:09:41;;;;;;;;;52.25;43.25;;;;;;;;5053337;28;51041;-59
2021/10/10 00:12:07;;;;;;;;;54.25;43.75;;;;;;;;5060973;28;51143;-58
2021/10/10 00:14:32;;;;;;;;;55.00;44.00;;;;;;;;5060571;28;51087;-59
2021/10/10 00:16:57;;;;;;;;;56.75;45.75;;;;;;;;5066433;28;51316;-58
2021/10/10 00:19:23;;;;;;;;;53.00;44.50;;;;;;;;5071988;28;51863;-58
2021/10/10 00:21:48;;;;;;;;;52.50;43.75;;;;;;;;5069083;28;51072;-58
2021/10/10 00:24:13;;;;;;;;;57.75;46.00;;;;;;;;5071227;28;50966;-58
2021/10/10 00:26:38;;;;;;;;;58.75;47.00;;;;;;;;5069328;28;51272;-58
2021/10/10 00:29:03;;;;;;;;;53.00;44.50;;;;;;;;5070806;28;51043;-57
2021/10/10 00:31:29;;;;;;;;;53.25;44.00;;;;;;;;5038976;28;50953;-57
2021/10/10 00:33:54;;;;;;;;;56.25;46.75;;;;;;;;5065626;28;50918;-57
2021/10/10 00:36:19;;;;;;;;;51.75;44.00;;;;;;;;5069312;28;50970;-58
2021/10/10 00:38:44;;;;;;;;;54.25;44.50;;;;;;;;5060284;28;50980;-59
2021/10/10 00:41:10;;;;;;;;;54.25;43.50;;;;;;;;5067340;28;51183;-59
2021/10/10 00:43:35;;;;;;;;;55.00;43.25;;;;;;;;5069950;28;51132;-59
2021/10/10 00:46:01;;;;;;;;;52.00;44.75;;;;;;;;5054956;28;51242;-59
2021/10/10 00:48:26;;;;;;;;;49.50;42.75;;;;;;;;5054929;28;52373;-57
2021/10/10 00:50:51;;;;;;;;;54.00;45.75;;;;;;;;5063894;28;51133;-57
2021/10/10 00:53:17;;;;;;;;;51.75;43.25;;;;;;;;5082178;27;51443;-58
2021/10/10 00:55:42;;;;;;;;;55.00;43.75;;;;;;;;5091517;27;50943;-58
2021/10/10 00:58:09;;;;;;;;;54.25;45.00;;;;;;;;5054484;28;52132;-58
2021/10/10 01:00:34;;;;;;;;;53.00;42.50;;;;;;;;5047830;28;51206;-57
2021/10/10 01:03:00;;;;;;;;;54.50;44.50;;;;;;;;5073011;28;51160;-58
2021/10/10 01:05:25;;;;;;;;;52.25;42.75;;;;;;;;5059184;28;51325;-58
2021/10/10 01:07:51;;;;;;;;;53.00;44.00;;;;;;;;5067943;28;51649;-59
2021/10/10 01:10:18;;;;;;;;;50.50;43.00;;;;;;;;5074886;28;50912;-58
2021/10/10 01:12:43;;;;;;;;;52.00;43.50;;;;;;;;5055293;28;51201;-58
2021/10/10 01:15:09;;;;;;;;;49.75;41.50;;;;;;;;5065952;28;51263;-58
2021/10/10 01:17:35;;;;;;;;;54.25;43.50;;;;;;;;5074322;28;51881;-58
2021/10/10 01:20:00;;;;;;;;;54.00;46.25;;;;;;;;5069364;28;51108;-58
2021/10/10 01:22:28;;;;;;;;;56.00;45.00;;;;;;;;5054638;28;51517;-57
2021/10/10 01:24:53;;;;;;;;;54.50;44.50;;;;;;;;5068093;28;51348;-58
2021/10/10 01:27:18;;;;;;;;;52.50;43.00;;;;;;;;5062501;28;51977;-58
2021/10/10 01:29:44;;;;;;;;;55.00;45.00;;;;;;;;5057256;28;51060;-59
2021/10/10 01:32:09;;;;;;;;;50.00;43.00;;;;;;;;5070564;28;50977;-58
2021/10/10 01:34:34;;;;;;;;;51.75;43.50;;;;;;;;5067209;28;51325;-58
2021/10/10 01:36:59;;;;;;;;;52.25;43.00;;;;;;;;5056505;28;52729;-59
2021/10/10 01:39:25;;;;;;;;;55.25;44.50;;;;;;;;5065047;28;51122;-58
2021/10/10 01:41:50;;;;;;;;;49.75;41.75;;;;;;;;5072604;28;51007;-58
2021/10/10 01:44:16;;;;;;;;;56.50;46.25;;;;;;;;5058960;28;51483;-58
2021/10/10 01:46:42;;;;;;;;;51.50;42.75;;;;;;;;5065213;28;53651;-58
2021/10/10 01:49:07;;;;;;;;;52.75;43.75;;;;;;;;5074492;28;51293;-58
2021/10/10 01:51:33;;;;;;;;;51.25;43.00;;;;;;;;5071801;28;51035;-58
2021/10/10 01:53:59;;;;;;;;;55.75;46.50;;;;;;;;5065309;27;51098;-58
2021/10/10 01:56:24;;;;;;;;;51.50;41.75;;;;;;;;5066908;28;51185;-58
2021/10/10 01:58:49;;;;;;;;;58.00;45.00;;;;;;;;5072462;28;51237;-57
2021/10/10 02:01:14;;;;;;;;;54.50;44.50;;;;;;;;5073433;28;51176;-58
2021/10/10 02:03:39;;;;;;;;;54.00;44.25;;;;;;;;5074737;28;50834;-58
2021/10/10 02:06:05;;;;;;;;;54.25;45.25;;;;;;;;5072983;28;50978;-59
2021/10/10 02:08:30;;;;;;;;;66.25;54.00;;;;;;;;5054475;28;51210;-58
2021/10/10 02:10:55;;;;;;;;;76.25;60.50;;;;;;;;5057549;28;51234;-58
2021/10/10 02:13:20;;;;;;;;;61.00;49.25;;;;;;;;5070554;28;51253;-58
2021/10/10 02:15:45;;;;;;;;;57.50;45.75;;;;;;;;5071557;28;51826;-58
2021/10/10 02:18:11;;;;;;;;;54.00;45.00;;;;;;;;5063412;28;50933;-58
2021/10/10 02:20:36;;;;;;;;;53.75;42.50;;;;;;;;5067220;28;51337;-58
2021/10/10 02:23:01;;;;;;;;;55.25;44.75;;;;;;;;5074151;28;51374;-58
2021/10/10 02:25:28;;;;;;;;;52.75;44.50;;;;;;;;5073869;28;52708;-58
2021/10/10 02:27:53;;;;;;;;;49.75;41.50;;;;;;;;5069401;28;51200;-58
2021/10/10 02:30:19;;;;;;;;;50.50;43.25;;;;;;;;5072138;28;51316;-58
2021/10/10 02:32:44;;;;;;;;;51.25;43.00;;;;;;;;5073013;28;51007;-58
2021/10/10 02:35:09;;;;;;;;;52.25;43.75;;;;;;;;5062521;28;51648;-58
2021/10/10 02:37:34;;;;;;;;;50.00;40.25;;;;;;;;5059767;28;51061;-58
2021/10/10 02:40:00;;;;;;;;;50.25;42.50;;;;;;;;5058278;28;51143;-58
2021/10/10 02:42:25;;;;;;;;;55.75;46.00;;;;;;;;5072725;28;53523;-57
2021/10/10 02:44:50;;;;;;;;;54.00;43.75;;;;;;;;5070606;28;51611;-57
2021/10/10 02:47:16;;;;;;;;;54.00;44.50;;;;;;;;5052919;28;50909;-57
2021/10/10 02:49:41;;;;;;;;;54.00;44.25;;;;;;;;5058764;28;51110;-57
2021/10/10 02:52:07;;;;;;;;;49.50;42.00;;;;;;;;5072337;28;51062;-57
2021/10/10 02:54:32;;;;;;;;;53.00;41.25;;;;;;;;5074301;27;52961;-58
2021/10/10 02:56:57;;;;;;;;;51.25;43.25;;;;;;;;5053035;28;51162;-59
2021/10/10 02:59:22;;;;;;;;;52.00;44.25;;;;;;;;5058159;28;51102;-57
2021/10/10 03:01:47;;;;;;;;;49.50;40.50;;;;;;;;5071534;28;51330;-57
2021/10/10 03:04:13;;;;;;;;;48.50;41.75;;;;;;;;5057688;28;52627;-58
2021/10/10 03:06:38;;;;;;;;;49.00;41.75;;;;;;;;5053116;28;51210;-57
2021/10/10 03:09:03;;;;;;;;;51.50;43.25;;;;;;;;5058808;28;51040;-58
2021/10/10 03:11:28;;;;;;;;;56.00;42.50;;;;;;;;5066120;28;51090;-57
2021/10/10 03:13:53;;;;;;;;;51.25;43.50;;;;;;;;5066012;28;51375;-58
2021/10/10 03:16:19;;;;;;;;;54.00;44.50;;;;;;;;5069084;28;50946;-58
2021/10/10 03:18:44;;;;;;;;;50.50;40.75;;;;;;;;5053088;28;51075;-58
2021/10/10 03:21:09;;;;;;;;;57.25;44.75;;;;;;;;5043929;28;50977;-57
2021/10/10 03:23:34;;;;;;;;;50.25;42.50;;;;;;;;5072508;28;51536;-58
2021/10/10 03:25:59;;;;;;;;;54.50;43.25;;;;;;;;5072720;28;51033;-58
2021/10/10 03:28:25;;;;;;;;;49.00;40.50;;;;;;;;5071047;28;51231;-58
2021/10/10 03:30:50;;;;;;;;;56.00;44.75;;;;;;;;5070605;28;51427;-57
2021/10/10 03:33:15;;;;;;;;;50.00;41.50;;;;;;;;5046252;28;51843;-57
2021/10/10 03:35:40;;;;;;;;;51.50;42.75;;;;;;;;5062895;28;50989;-57
2021/10/10 03:38:05;;;;;;;;;52.25;41.75;;;;;;;;5070819;28;50950;-59
2021/10/10 03:40:31;;;;;;;;;51.25;41.25;;;;;;;;5045342;28;50874;-57
2021/10/10 03:42:56;;;;;;;;;52.00;41.50;;;;;;;;5072880;28;51843;-57
2021/10/10 03:45:21;;;;;;;;;26.25;24.25;;;;;;;;5072577;28;50943;-58
2021/10/10 03:47:47;;;;;;;;;46.75;39.00;;;;;;;;5072600;28;51448;-58
2021/10/10 03:50:12;;;;;;;;;53.00;44.00;;;;;;;;5067042;28;51365;-57
2021/10/10 03:52:37;;;;;;;;;49.25;41.00;;;;;;;;5075237;27;51761;-57
2021/10/10 03:57:28;;;;;;;;;48.50;40.00;;;;;;;;5046141;28;51036;-57
2021/10/10 04:00:15;;;;;;;;;51.50;40.50;;;;;;;;5052515;28;51186;-57
2021/10/10 04:02:40;;;;;;;;;53.25;44.50;;;;;;;;5072121;28;51939;-58
2021/10/10 04:05:15;;;;;;;;;44.25;39.25;;;;;;;;5064945;28;51214;-57
2021/10/10 04:07:40;;;;;;;;;50.75;42.75;;;;;;;;5057568;28;51094;-57
2021/10/10 04:10:05;;;;;;;;;51.25;43.00;;;;;;;;5068461;28;51210;-57
2021/10/10 04:12:30;;;;;;;;;55.25;43.75;;;;;;;;5071267;28;51702;-59
2021/10/10 04:14:56;;;;;;;;;49.25;40.25;;;;;;;;5063577;28;51174;-57
2021/10/10 04:17:21;;;;;;;;;48.50;41.25;;;;;;;;5055286;28;51364;-57
2021/10/10 04:19:46;;;;;;;;;52.00;41.50;;;;;;;;5052935;28;51375;-57
2021/10/10 04:22:11;;;;;;;;;46.00;41.00;;;;;;;;5072469;28;51969;-57
2021/10/10 04:24:36;;;;;;;;;54.00;44.25;;;;;;;;5063244;28;51178;-57
2021/10/10 04:27:02;;;;;;;;;50.00;42.00;;;;;;;;5055417;28;51063;-58
2021/10/10 04:29:27;;;;;;;;;55.00;43.75;;;;;;;;5042375;28;51247;-58
2021/10/10 04:31:52;;;;;;;;;56.75;44.50;;;;;;;;5068462;28;51995;-58
2021/10/10 04:34:17;;;;;;;;;53.25;45.00;;;;;;;;5074706;28;51318;-58
2021/10/10 04:36:42;;;;;;;;;53.50;44.75;;;;;;;;5060941;28;50981;-58
2021/10/10 04:39:08;;;;;;;;;51.25;40.75;;;;;;;;5066720;28;50910;-58
2021/10/10 04:44:08;;;;;;;;;53.75;44.00;;;;;;;;5344967;22;54855;-58
2021/10/10 04:46:33;;;;;;;;;52.75;43.75;;;;;;;;5013551;28;51844;-58
2021/10/10 04:48:58;;;;;;;;;54.00;43.75;;;;;;;;5015055;28;51077;-57
2021/10/10 04:51:24;;;;;;;;;56.75;46.75;;;;;;;;5022096;28;51891;-58
2021/10/10 04:53:49;;;;;;;;;49.75;41.25;;;;;;;;5022199;28;51080;-57
2021/10/10 04:56:14;;;;;;;;;53.00;43.25;;;;;;;;5014706;28;51380;-57
2021/10/10 04:58:39;;;;;;;;;51.25;44.50;;;;;;;;5014832;28;51247;-57
2021/10/10 05:01:04;;;;;;;;;48.50;39.75;;;;;;;;5015890;28;51781;-58
2021/10/10 05:03:30;;;;;;;;;53.25;43.00;;;;;;;;5010444;28;50951;-58
2021/10/10 05:05:55;;;;;;;;;55.00;45.25;;;;;;;;5014854;28;51156;-58
2021/10/10 05:08:20;;;;;;;;;52.50;43.00;;;;;;;;5015197;28;50970;-58
2021/10/10 05:10:45;;;;;;;;;55.25;44.50;;;;;;;;5013592;28;51103;-58
2021/10/10 05:13:11;;;;;;;;;54.00;44.00;;;;;;;;5014882;28;51038;-58
2021/10/10 05:15:36;;;;;;;;;53.50;42.50;;;;;;;;5013712;28;51091;-58
2021/10/10 05:18:01;;;;;;;;;51.75;43.00;;;;;;;;5013668;28;51046;-57
2021/10/10 05:20:27;;;;;;;;;52.25;42.75;;;;;;;;4994607;28;51998;-57
2021/10/10 05:22:52;;;;;;;;;52.50;42.50;;;;;;;;5014696;28;50883;-57
2021/10/10 05:25:17;;;;;;;;;57.00;44.50;;;;;;;;5014421;28;51566;-57
2021/10/10 05:27:42;;;;;;;;;52.00;43.75;;;;;;;;5014732;28;50950;-58
2021/10/10 05:30:08;;;;;;;;;43.75;39.50;;;;;;;;5011429;28;53034;-57
2021/10/10 05:32:33;;;;;;;;;54.75;44.00;;;;;;;;5011451;28;51026;-58
2021/10/10 05:34:58;;;;;;;;;59.25;47.00;;;;;;;;5012200;28;50981;-57
2021/10/10 05:37:24;;;;;;;;;54.25;43.00;;;;;;;;5013459;28;51372;-58
2021/10/10 05:39:49;;;;;;;;;53.00;44.50;;;;;;;;5013853;28;51628;-58
2021/10/10 05:42:15;;;;;;;;;57.25;47.50;;;;;;;;5012888;28;51135;-58
2021/10/10 05:44:41;;;;;;;;;55.75;45.75;;;;;;;;5013208;28;50851;-59
2021/10/10 05:47:06;;;;;;;;;56.00;47.00;;;;;;;;5014141;28;50905;-57
2021/10/10 05:49:32;;;;;;;;;54.00;45.00;;;;;;;;5014010;28;52613;-57
2021/10/10 05:51:58;;;;;;;;;51.75;42.25;;;;;;;;5005374;28;51152;-57
2021/10/10 05:54:24;;;;;;;;;60.75;49.00;;;;;;;;5011360;28;50978;-57
2021/10/10 05:56:49;;;;;;;;;56.75;47.25;;;;;;;;5014107;28;50989;-58
2021/10/10 05:59:16;;;;;;;;;49.25;41.00;;;;;;;;5013886;28;51906;-59
2021/10/10 06:01:41;;;;;;;;;57.50;46.00;;;;;;;;5015305;28;50883;-58
2021/10/10 06:04:07;;;;;;;;;60.00;49.50;;;;;;;;5014260;28;50956;-58
2021/10/10 06:06:32;;;;;;;;;56.00;46.75;;;;;;;;5012505;28;50981;-57
2021/10/10 06:08:57;;;;;;;;;53.00;44.00;;;;;;;;5003846;28;51216;-57
2021/10/10 06:11:23;;;;;;;;;55.00;45.00;;;;;;;;5012572;28;51057;-57
2021/10/10 06:13:48;;;;;;;;;50.75;42.50;;;;;;;;5013248;28;50880;-58
2021/10/10 06:16:14;;;;;;;;;55.00;44.25;;;;;;;;5010098;28;51417;-57
2021/10/10 06:18:39;;;;;;;;;53.75;45.00;;;;;;;;5009444;28;51884;-57
2021/10/10 06:21:04;;;;;;;;;56.00;46.00;;;;;;;;5011047;28;51360;-57
2021/10/10 06:23:29;;;;;;;;;55.50;44.75;;;;;;;;5011388;28;50992;-58
2021/10/10 06:25:55;;;;;;;;;55.75;43.75;;;;;;;;5011422;28;51246;-57
2021/10/10 06:28:20;;;;;;;;;49.75;43.00;;;;;;;;5011213;28;51102;-57
2021/10/10 06:30:45;;;;;;;;;58.25;48.00;;;;;;;;5008897;28;51863;-57
2021/10/10 06:33:10;;;;;;;;;53.50;44.75;;;;;;;;5008930;28;51274;-57
2021/10/10 06:35:36;;;;;;;;;57.50;46.75;;;;;;;;5011608;28;51009;-57
2021/10/10 06:38:01;;;;;;;;;57.75;45.50;;;;;;;;5011565;28;51864;-57
2021/10/10 06:40:26;;;;;;;;;56.00;45.25;;;;;;;;5015475;28;51229;-57
2021/10/10 06:42:51;;;;;;;;;49.75;42.75;;;;;;;;5006400;28;51379;-57
2021/10/10 06:45:16;;;;;;;;;56.25;47.25;;;;;;;;5008007;28;51255;-57
2021/10/10 06:47:42;;;;;;;;;54.75;44.50;;;;;;;;5009807;28;52266;-58
2021/10/10 06:50:08;;;;;;;;;54.25;44.25;;;;;;;;5009788;28;51238;-58
2021/10/10 06:52:33;;;;;;;;;56.75;45.50;;;;;;;;5011368;28;50960;-58
2021/10/10 06:54:58;;;;;;;;;54.25;45.00;;;;;;;;5010615;28;51353;-58
2021/10/10 06:57:28;;;;;;;;;60.50;47.00;;;;;;;;4993245;28;51722;-58
2021/10/10 06:59:55;;;;;;;;;56.75;46.75;;;;;;;;5004592;28;51179;-57
2021/10/10 07:02:21;;;;;;;;;52.50;44.00;;;;;;;;5009506;28;51099;-58
2021/10/10 07:04:46;;;;;;;;;56.50;46.00;;;;;;;;5010279;28;51337;-59
2021/10/10 07:07:11;;;;;;;;;58.00;47.75;;;;;;;;5008566;28;51187;-58
2021/10/10 07:09:36;;;;;;;;;57.25;47.00;;;;;;;;5008167;28;50934;-57
2021/10/10 07:12:02;;;;;;;;;54.50;44.75;;;;;;;;5009921;28;51060;-57
2021/10/10 07:14:27;;;;;;;;;56.50;44.25;;;;;;;;5011238;28;51072;-57
2021/10/10 07:16:53;;;;;;;;;56.25;45.25;;;;;;;;5007642;28;50934;-57
2021/10/10 07:19:23;;;;;;;;;59.50;46.75;;;;;;;;5010676;28;51009;-58
2021/10/10 07:27:03;;;;;;;;;56.50;46.25;;;;;;;;5010691;28;51107;-57
2021/10/10 07:29:28;;;;;;;;;55.50;44.25;;;;;;;;4993264;28;51280;-58
2021/10/10 07:31:54;;;;;;;;;55.75;46.00;;;;;;;;5018641;28;51179;-58
2021/10/10 07:34:19;;;;;;;;;54.00;43.50;;;;;;;;5010230;28;51270;-57
2021/10/10 07:36:44;;;;;;;;;50.00;40.75;;;;;;;;5011442;28;50979;-59
2021/10/10 07:39:09;;;;;;;;;49.00;41.25;;;;;;;;5011365;28;50978;-57
2021/10/10 07:41:36;;;;;;;;;50.25;40.75;;;;;;;;5011520;28;50902;-58
2021/10/10 07:44:05;;;;;;;;;50.25;40.75;;;;;;;;5010050;28;50919;-58
2021/10/10 07:46:35;;;;;;;;;51.00;42.75;;;;;;;;5009511;28;51989;-58
2021/10/10 07:49:00;;;;;;;;;50.00;40.00;;;;;;;;5009403;28;51110;-58
2021/10/10 07:51:28;;;;;;;;;46.75;39.25;;;;;;;;5010380;28;51068;-58
2021/10/10 07:53:53;;;;;;;;;47.00;39.00;;;;;;;;5009371;28;51451;-58
2021/10/10 07:56:19;;;;;;;;;46.50;39.25;;;;;;;;5012710;28;51860;-58
2021/10/10 07:58:44;;;;;;;;;46.00;39.25;;;;;;;;5013967;28;51120;-58
2021/10/10 08:01:09;;;;;;;;;46.75;38.50;;;;;;;;5020853;28;51128;-58
2021/10/10 08:03:35;;;;;;;;;43.25;37.00;;;;;;;;5014304;28;51349;-58
2021/10/10 08:06:00;;;;;;;;;40.75;36.00;;;;;;;;5007192;28;51784;-58
2021/10/10 08:08:25;;;;;;;;;44.00;38.00;;;;;;;;5013772;28;51098;-59
2021/10/10 08:10:50;;;;;;;;;46.25;39.00;;;;;;;;5003929;28;51136;-59
2021/10/10 08:13:15;;;;;;;;;48.75;39.00;;;;;;;;5013146;28;51104;-59
2021/10/10 08:15:41;;;;;;;;;49.00;40.00;;;;;;;;5012296;28;51924;-59
2021/10/10 08:18:06;;;;;;;;;47.75;40.00;;;;;;;;5012693;28;51017;-59
2021/10/10 08:20:31;;;;;;;;;44.50;37.75;;;;;;;;5014951;28;51251;-59
2021/10/10 08:22:57;;;;;;;;;48.00;40.75;;;;;;;;5013300;28;51069;-59
2021/10/10 08:25:23;;;;;;;;;48.00;39.00;;;;;;;;5014245;28;51087;-59
2021/10/10 08:27:48;;;;;;;;;42.25;35.50;;;;;;;;5014205;28;51069;-58
2021/10/10 08:30:15;;;;;;;;;53.50;43.75;;;;;;;;5013889;28;51706;-58
2021/10/10 08:32:40;;;;;;;;;41.50;35.50;;;;;;;;5013837;28;51332;-59
2021/10/10 08:35:06;;;;;;;;;40.50;34.50;;;;;;;;5008019;28;51235;-60
2021/10/10 08:37:32;;;;;;;;;42.00;35.75;;;;;;;;5011560;28;51267;-59
2021/10/10 08:39:57;;;;;;;;;47.50;39.00;;;;;;;;5012342;28;51051;-60
2021/10/10 08:42:31;;;;;;;;;44.50;36.50;;;;;;;;5013062;28;50934;-60
2021/10/10 08:45:08;;;;;;;;;44.75;38.00;;;;;;;;5011729;28;53488;-59
2021/10/10 08:47:34;;;;;;;;;47.25;40.25;;;;;;;;5013507;28;51256;-58
2021/10/10 08:50:01;;;;;;;;;44.25;36.25;;;;;;;;5013919;28;51260;-59
2021/10/10 08:52:26;;;;;;;;;41.50;35.00;;;;;;;;4996251;28;51436;-59
2021/10/10 08:54:52;;;;;;;;;43.50;37.00;;;;;;;;5012622;28;52183;-59
2021/10/10 08:57:17;;;;;;;;;44.25;36.75;;;;;;;;5013512;28;50852;-59
2021/10/10 08:59:46;;;;;;;;;42.75;37.00;;;;;;;;5006871;28;51208;-59
2021/10/10 09:02:24;;;;;;;;;40.75;34.00;;;;;;;;5003107;28;51113;-58
2021/10/10 09:04:50;;;;;;;;;40.75;33.75;;;;;;;;5012178;28;51069;-58
2021/10/10 09:07:15;;;;;;;;;42.50;35.75;;;;;;;;5013184;28;51089;-59
2021/10/10 09:09:41;;;;;;;;;40.50;35.25;;;;;;;;5013339;28;51223;-59
2021/10/10 09:12:10;;;;;;;;;39.00;34.00;;;;;;;;5001893;28;51176;-59
2021/10/10 09:14:41;;;;;;;;;44.75;37.00;;;;;;;;5010773;28;51718;-59
2021/10/10 09:17:07;;;;;;;;;40.00;34.50;;;;;;;;5012266;28;51246;-58
2021/10/10 09:19:32;;;;;;;;;41.00;35.25;;;;;;;;5013933;28;51065;-58
2021/10/10 09:22:01;;;;;;;;;36.00;32.75;;;;;;;;5014341;28;50950;-58
2021/10/10 09:24:27;;;;;;;;;37.25;32.50;;;;;;;;5004158;28;51372;-58
2021/10/10 09:26:52;;;;;;;;;38.25;33.75;;;;;;;;5013876;28;50974;-59
2021/10/10 09:29:34;;;;;;;;;40.25;34.75;;;;;;;;5006080;28;51219;-59
2021/10/10 09:32:03;;;;;;;;;39.75;34.25;;;;;;;;5012837;28;51147;-59
2021/10/10 09:34:28;;;;;;;;;37.75;33.75;;;;;;;;5012474;28;52080;-58
2021/10/10 09:36:55;;;;;;;;;41.50;36.00;;;;;;;;5011438;28;51084;-58
2021/10/10 09:39:25;;;;;;;;;39.75;34.75;;;;;;;;5006950;28;51738;-58
2021/10/10 09:41:54;;;;;;;;;42.25;35.25;;;;;;;;5013890;28;50966;-57
2021/10/10 09:44:26;;;;;;;;;38.75;32.50;;;;;;;;5010237;28;51179;-59
2021/10/10 09:46:56;;;;;;;;;38.50;33.50;;;;;;;;5001006;28;51138;-59
2021/10/10 09:49:29;;;;;;;;;34.00;31.75;;;;;;;;5003855;28;50984;-59
2021/10/10 09:52:09;;;;;;;;;38.25;31.25;;;;;;;;5000219;28;51145;-58
2021/10/10 09:54:49;;;;;;;;;36.75;31.75;;;;;;;;5007261;28;51822;-58
2021/10/10 09:57:15;;;;;;;;;34.75;32.25;;;;;;;;5013265;28;51062;-58
2021/10/10 09:59:40;;;;;;;;;36.50;33.25;;;;;;;;5009872;28;51048;-58
2021/10/10 10:02:05;;;;;;;;;33.00;30.50;;;;;;;;5012796;28;51311;-57
2021/10/10 10:04:50;;;;;;;;;36.75;32.75;;;;;;;;5013312;28;50946;-58
2021/10/10 10:07:20;;;;;;;;;34.75;32.00;;;;;;;;5013217;28;50991;-58
2021/10/10 10:09:52;;;;;;;;;30.00;29.00;;;;;;;;5012315;28;50986;-58
2021/10/10 10:12:22;;;;;;;;;34.25;31.75;;;;;;;;4979801;28;51065;-60
2021/10/10 10:14:49;;;;;;;;;38.25;33.25;;;;;;;;5012609;28;51707;-58
2021/10/10 10:17:14;;;;;;;;;35.50;31.50;;;;;;;;5002524;28;51151;-58
2021/10/10 10:19:40;;;;;;;;;38.25;32.00;;;;;;;;4997154;28;51112;-58
2021/10/10 10:22:07;;;;;;;;;36.25;33.00;;;;;;;;5007980;28;51116;-58
2021/10/10 10:24:34;;;;;;;;;32.50;30.75;;;;;;;;5013358;28;52397;-59
2021/10/10 10:26:59;;;;;;;;;32.75;29.25;;;;;;;;5012450;28;51459;-58
2021/10/10 10:29:26;;;;;;;;;31.75;29.75;;;;;;;;5012982;28;51103;-59
2021/10/10 10:31:53;;;;;;;;;34.25;31.50;;;;;;;;5010803;28;51244;-59
2021/10/10 10:34:18;;;;;;;;;31.75;30.25;;;;;;;;5010225;28;51406;-58
2021/10/10 10:36:54;;;;;;;;;34.75;31.00;;;;;;;;5012390;28;51008;-58
2021/10/10 10:39:37;;;;;;;;;39.50;34.00;;;;;;;;5009582;28;51057;-59
2021/10/10 10:42:04;;;;;;;;;34.75;31.50;;;;;;;;5013207;28;50926;-60
2021/10/10 10:44:36;;;;;;;;;37.75;33.25;;;;;;;;5009593;28;51943;-59
2021/10/10 10:47:10;;;;;;;;;29.25;27.50;;;;;;;;5012471;28;50870;-59
2021/10/10 10:49:50;;;;;;;;;30.00;28.00;;;;;;;;4992457;28;51253;-58
2021/10/10 10:52:36;;;;;;;;;30.25;28.75;;;;;;;;5002300;28;51383;-59
2021/10/10 10:55:18;;;;;;;;;31.50;29.75;;;;;;;;5010739;28;51079;-59
2021/10/10 10:57:58;;;;;;;;;27.00;27.00;;;;;;;;5012591;28;50935;-59
2021/10/10 11:00:24;;;;;;;;;31.25;29.00;;;;;;;;5011476;28;51160;-59
2021/10/10 11:02:50;;;;;;;;;33.75;31.25;;;;;;;;5012486;28;51017;-59
2021/10/10 11:05:28;;;;;;;;;32.00;30.25;;;;;;;;5012373;28;52905;-58
2021/10/10 11:07:53;;;;;;;;;29.75;28.75;;;;;;;;5009514;28;51212;-59
2021/10/10 11:10:18;;;;;;;;;36.75;32.75;;;;;;;;5008447;28;50976;-60
2021/10/10 11:12:44;;;;;;;;;36.00;33.00;;;;;;;;4998670;28;51153;-59
2021/10/10 11:15:10;;;;;;;;;26.25;25.50;;;;;;;;5011650;28;52987;-59
2021/10/10 11:17:37;;;;;;;;;26.25;24.75;;;;;;;;4994106;28;50912;-59
2021/10/10 11:20:03;;;;;;;;;24.50;24.50;;;;;;;;5011271;28;50943;-58
2021/10/10 11:22:28;;;;;;;;;23.00;23.00;;;;;;;;5012033;28;51809;-60
2021/10/10 11:24:54;;;;;;;;;27.50;26.25;;;;;;;;4992701;28;54300;-59
2021/10/10 11:27:21;;;;;;;;;28.50;27.50;;;;;;;;5011367;28;50958;-58
2021/10/10 11:29:50;;;;;;;;;27.75;26.50;;;;;;;;5010408;28;51129;-59
2021/10/10 11:32:15;;;;;;;;;28.75;28.00;;;;;;;;5010986;28;51300;-59
2021/10/10 11:34:40;;;;;;;;;31.50;28.50;;;;;;;;5011131;28;52291;-58
2021/10/10 11:37:11;;;;;;;;;27.50;25.50;;;;;;;;5011410;28;52868;-58
2021/10/10 11:39:36;;;;;;;;;25.00;25.00;;;;;;;;5011498;28;51089;-59
2021/10/10 11:42:06;;;;;;;;;28.75;27.25;;;;;;;;5010149;28;51047;-59
2021/10/10 11:44:41;;;;;;;;;27.25;27.00;;;;;;;;5011214;28;51838;-58
2021/10/10 11:47:16;;;;;;;;;28.75;28.00;;;;;;;;5010924;28;51012;-58
2021/10/10 11:49:42;;;;;;;;;22.50;21.75;;;;;;;;5011341;28;51199;-60
2021/10/10 11:52:12;;;;;;;;;27.75;26.00;;;;;;;;4993699;28;51390;-60
2021/10/10 11:54:41;;;;;;;;;25.50;25.50;;;;;;;;5010637;28;51958;-59
2021/10/10 11:57:08;;;;;;;;;23.75;23.75;;;;;;;;5009982;28;50835;-59
2021/10/10 11:59:33;;;;;;;;;28.00;27.50;;;;;;;;5011087;28;51224;-58
2021/10/10 12:01:59;;;;;;;;;25.75;24.00;;;;;;;;5010951;28;51078;-58
2021/10/10 12:04:24;;;;;;;;;24.75;24.50;;;;;;;;5011346;28;51069;-58
2021/10/10 12:06:50;;;;;;;;;25.75;25.25;;;;;;;;5010309;28;51169;-59
2021/10/10 12:09:16;;;;;;;;;26.50;26.25;;;;;;;;5010422;28;50990;-60
2021/10/10 12:12:01;;;;;;;;;25.75;25.25;;;;;;;;5011053;28;51253;-58
2021/10/10 12:14:39;;;;;;;;;26.75;26.00;;;;;;;;5008578;28;52011;-61
2021/10/10 12:17:05;;;;;;;;;23.50;23.25;;;;;;;;5010548;28;50940;-59
2021/10/10 12:19:40;;;;;;;;;27.00;26.25;;;;;;;;4989676;28;51342;-59
2021/10/10 12:22:05;;;;;;;;;28.25;27.25;;;;;;;;5005201;28;51147;-60
2021/10/10 12:24:41;;;;;;;;;25.50;24.50;;;;;;;;5010088;28;51023;-58
2021/10/10 12:27:06;;;;;;;;;26.75;26.25;;;;;;;;5010836;28;51118;-58
2021/10/10 12:29:31;;;;;;;;;23.25;22.25;;;;;;;;5010832;28;51069;-59
2021/10/10 12:32:15;;;;;;;;;28.75;26.00;;;;;;;;5009236;28;50843;-59
2021/10/10 12:34:41;;;;;;;;;21.75;21.25;;;;;;;;5010750;28;51146;-59
2021/10/10 12:37:15;;;;;;;;;30.75;29.25;;;;;;;;5010784;28;50896;-59
2021/10/10 12:39:41;;;;;;;;;31.50;30.00;;;;;;;;5010236;28;50963;-59
2021/10/10 12:42:06;;;;;;;;;30.50;29.75;;;;;;;;5009120;28;51134;-59
2021/10/10 12:44:32;;;;;;;;;29.75;27.00;;;;;;;;5010348;28;51055;-60
2021/10/10 12:46:57;;;;;;;;;26.75;25.00;;;;;;;;5009849;28;51045;-58
2021/10/10 12:49:29;;;;;;;;;28.75;27.75;;;;;;;;5011192;28;50858;-58
2021/10/10 12:51:55;;;;;;;;;31.75;29.75;;;;;;;;4986317;28;51190;-58
2021/10/10 12:54:22;;;;;;;;;29.75;28.75;;;;;;;;5012872;28;52948;-60
2021/10/10 12:57:03;;;;;;;;;30.00;29.00;;;;;;;;5013726;28;51191;-59
2021/10/10 12:59:28;;;;;;;;;34.25;30.75;;;;;;;;5013174;28;51530;-59
2021/10/10 13:01:53;;;;;;;;;29.75;29.00;;;;;;;;5011819;28;51106;-59
2021/10/10 13:04:19;;;;;;;;;35.75;31.75;;;;;;;;5013317;28;51959;-59
2021/10/10 13:06:45;;;;;;;;;35.00;33.00;;;;;;;;5012899;28;50986;-59
2021/10/10 13:09:11;;;;;;;;;34.50;32.50;;;;;;;;5006690;28;51134;-60
2021/10/10 13:11:37;;;;;;;;;34.50;31.25;;;;;;;;5003443;28;51042;-64
2021/10/10 13:14:02;;;;;;;;;29.50;29.50;;;;;;;;5009167;28;51646;-62
2021/10/10 13:16:27;;;;;;;;;33.75;31.50;;;;;;;;5012203;28;50978;-59
2021/10/10 13:18:52;;;;;;;;;40.75;33.75;;;;;;;;5012838;28;51045;-59
2021/10/10 13:21:18;;;;;;;;;37.00;33.25;;;;;;;;5013972;28;50856;-59
2021/10/10 13:23:43;;;;;;;;;35.00;32.00;;;;;;;;5013076;28;52190;-59
2021/10/10 13:26:08;;;;;;;;;34.00;31.00;;;;;;;;5013457;28;50888;-59
2021/10/10 13:28:34;;;;;;;;;33.75;31.75;;;;;;;;5013361;28;50848;-59
2021/10/10 13:31:04;;;;;;;;;39.00;32.75;;;;;;;;5013239;28;51061;-58
2021/10/10 13:33:30;;;;;;;;;38.50;33.50;;;;;;;;4999602;28;52707;-59
2021/10/10 13:35:55;;;;;;;;;36.75;33.00;;;;;;;;5013261;28;51053;-59
2021/10/10 13:38:22;;;;;;;;;32.50;31.00;;;;;;;;5011750;28;51146;-59
2021/10/10 13:40:47;;;;;;;;;43.75;36.50;;;;;;;;4995009;28;51512;-58
2021/10/10 13:43:12;;;;;;;;;34.75;31.75;;;;;;;;5012648;28;52097;-59
2021/10/10 13:45:38;;;;;;;;;34.75;31.75;;;;;;;;5012397;28;51260;-60
2021/10/10 13:48:03;;;;;;;;;36.50;33.00;;;;;;;;5010697;28;51072;-60
2021/10/10 13:50:32;;;;;;;;;38.00;33.25;;;;;;;;5012462;28;51175;-59
2021/10/10 13:52:58;;;;;;;;;42.25;35.50;;;;;;;;4993680;28;53055;-58
2021/10/10 13:55:23;;;;;;;;;34.75;32.25;;;;;;;;5012373;28;50898;-59
2021/10/10 13:57:48;;;;;;;;;34.50;31.75;;;;;;;;5012943;28;51123;-58
2021/10/10 14:00:14;;;;;;;;;36.00;33.00;;;;;;;;5012246;28;50932;-58
2021/10/10 14:02:39;;;;;;;;;41.50;33.25;;;;;;;;5012539;28;51395;-58
2021/10/10 14:05:04;;;;;;;;;37.75;33.75;;;;;;;;5011429;28;51042;-58
2021/10/10 14:07:29;;;;;;;;;30.75;29.00;;;;;;;;5008950;28;51007;-58
2021/10/10 14:09:55;;;;;;;;;30.00;30.00;;;;;;;;5019796;28;51187;-59
2021/10/10 14:12:20;;;;;;;;;29.00;28.00;;;;;;;;5011358;28;51060;-58
2021/10/10 14:14:45;;;;;;;;;35.00;32.00;;;;;;;;5012120;28;51086;-59
2021/10/10 14:17:11;;;;;;;;;38.50;32.75;;;;;;;;5012437;28;50868;-58
2021/10/10 14:19:36;;;;;;;;;44.00;37.25;;;;;;;;5010208;28;51857;-59
2021/10/10 14:22:02;;;;;;;;;39.25;34.00;;;;;;;;5011572;28;50847;-58